Portada
METAR-TAF:

METAR-TAF

Aeroports :

Northolt, Anglaterra

latitud: 51-33N, longitud: 000-25W, altitud: 38 m

Observació

L'informe es va fer fa 1 hora i 16 minuts, a les 22:50 UTC
Vent 5 kt del Sud-Oest
Temperatura 7°C
Humitat 93%
Pressió 1010 hPa
Visibilitat 10 km o més

METAR: EGWU 232250Z AUTO 22005KT 9999 // NCD 07/06 Q1010

Hora: 01:06 (00:06 UTC)

Pronòstic

L'informe es va fer fa 4 hores i 18 minuts, a les 19:48 UTC
Pronòstic vàlid del 23 a les 21 UTC al 24 a les 15 UTC
Vent 6 kt del Oest
Visibilitat 10 km o més
Escasses núvols a una alçada de 4500 ft
Evolucionant progressivament
l' 24 a les 09 UTC al 24 a les 12 UTC
Vent 20 kt del Sud/Sud-Oest amb ràfegues de 30 kt
Cel ennuvolat a una alçada de 1800 ft
Probabilitat 40% :
Temporalment
l' 24 a les 10 UTC al 24 a les 15 UTC
Visibilitat: 7000 m
Núvols disperses a una alçada de 1300 ft
pluja, plugim

TAF: EGWU 231948Z 2321/2415 26006KT 9999 FEW045 BECMG 2409/2412 20020G30KT BKN018 PROB40 TEMPO 2410/2415 7000 -RADZ SCT013

Observacions i pronòstics meteorològics de més de 4000 aeroports (METAR i TAF).

Les estacions disponibles són els punts grocs i vermells al mapa.

Posi el ratolí al punt desitjat per veure el nom de l'estació.

Feu clic per veure les observacions i els pronòstics meteorològics.

Per canviar el mapa: feu clic els botons verds amb una creu de color negre per apropar; al botó verd amb un guió per allunyar la imatge; o en les fletxes verdes per a mapes adjacents.


METAR-TAF: